Pagrindinis puslapis
METAR-TAF:

METAR-TAF

Oro uostai :

Abha, Saudo Arabija

platuma: 18-14N, ilguma: 042-39E, Aukštis: 2090 m

Dabartinis oras

Ataskaita buvo paskelbta 22 minutes, ne 10:00 UTC
Vėjas 8 kt iš Rytų/Šiaurės Rytų
Temperatūra 25°C
Drėgmė 19%
Slėgis 1026 hPa
Matomumas 10 km arba daugiau
Su prošvaistėmis ne aukštis 2000 ft

METAR: OEAB 141000Z 07008KT 9999 BKN020 25/00 Q1026 NOSIG

Laikas: 13:22 (10:22 UTC)

Prognozė

Ataskaita buvo paskelbta 5 valandos ir 22 minutes, ne 05:00 UTC
Prognozė galioja nuo 14 metu 06 UTC su 14 metu 15 UTC
Vėjas 15 kt iš Rytų
Matomumas 10 km arba daugiau
Išsisklaidę debesys ne aukštis 2000 ft
Laikinai
nuo 14 metu 09 UTC su 14 metu 15 UTC
Matomumas: 6000 m
Su prošvaistėmis ne aukštis 2000 ft
Mažai debesys ne aukštis 2500 ft, Liūtiniai kamuoliniai debesys.
perkūnija, lietus

TAF: OEAB 140500Z 1406/1415 09015KT 9999 SCT020 TEMPO 1409/1415 6000 TSRA BKN020 FEW025CB

Orai ataskaitas ir orų prognozės (METAR, TAF).

turimą stotys yra geltonos ir raudonos taškus žemėlapyje.

Perkelti pele per norėdami pamatyti stoties vardą.

Tada spustelėkite, norėdami matyti oro stebėjimo ir prognozės.

Norėdami pakeisti žemėlapį: spustelėkite ant žalios mygtukų su juodo kryžiaus žemyn,; žalią mygtuką su brūkšneliu, jei norite nutolinti; arba žalių rodyklių gretimoms žemėlapius.


METAR-TAF: